createdAt,value
2023-03-07T00:00:35.588Z,23.01
2023-03-07T00:01:35.585Z,23.00
2023-03-07T00:02:35.579Z,23.00
2023-03-07T00:03:35.597Z,23.00
2023-03-07T00:04:35.521Z,23.01
2023-03-07T02:03:32.136Z,22.96
2023-03-07T02:04:32.101Z,22.95
2023-03-07T02:05:32.064Z,22.95
2023-03-07T02:06:32.002Z,22.95
2023-03-07T02:07:31.965Z,22.95
2023-03-07T02:08:43.308Z,22.96
2023-03-07T02:10:31.811Z,22.94
2023-03-07T02:11:31.761Z,22.94
2023-03-07T02:12:31.706Z,22.96
2023-03-07T02:13:31.664Z,22.94
2023-03-07T02:14:31.619Z,22.95
2023-03-07T02:15:31.615Z,22.95
2023-03-07T02:16:31.504Z,22.96
2023-03-07T02:17:31.452Z,22.95
2023-03-07T02:18:31.413Z,22.95
2023-03-07T02:19:31.381Z,22.94
2023-03-07T02:20:31.302Z,22.95
2023-03-07T02:21:31.256Z,22.95
2023-03-07T02:22:31.212Z,22.96
2023-03-07T02:23:31.155Z,22.95
2023-03-07T02:24:31.114Z,22.96
2023-03-07T02:25:31.067Z,22.95
2023-03-07T02:26:31.044Z,22.96
2023-03-07T02:27:30.965Z,22.95
2023-03-07T02:28:30.904Z,22.96
2023-03-07T02:29:30.854Z,22.97
2023-03-07T02:30:30.809Z,22.96
2023-03-07T02:31:30.799Z,22.96
2023-03-07T02:32:30.825Z,22.96
2023-03-07T02:33:30.654Z,22.97
2023-03-07T02:34:30.613Z,22.95
2023-03-07T02:35:30.580Z,22.95
2023-03-07T02:36:30.516Z,22.95
2023-03-07T02:37:30.446Z,22.95
2023-03-07T02:38:30.396Z,22.95
2023-03-07T02:39:30.377Z,22.94
2023-03-07T02:40:30.297Z,22.95
2023-03-07T02:41:30.257Z,22.95
2023-03-07T02:42:30.197Z,22.94
2023-03-07T02:43:30.147Z,22.95
2023-03-07T02:44:30.093Z,22.94
2023-03-07T02:45:30.052Z,22.95
2023-03-07T02:46:30.069Z,22.95
2023-03-07T02:47:29.971Z,22.95
2023-03-07T02:48:29.888Z,22.96
2023-03-07T02:49:29.836Z,22.95
2023-03-07T02:50:29.785Z,22.96
2023-03-07T02:51:29.732Z,22.96
2023-03-07T02:52:29.699Z,22.96
2023-03-07T02:53:29.636Z,22.96
2023-03-07T02:54:29.583Z,22.96
2023-03-07T02:55:29.538Z,22.95
2023-03-07T02:56:29.739Z,22.95
2023-03-07T02:57:29.434Z,22.96
2023-03-07T02:58:29.386Z,22.95
2023-03-07T02:59:29.334Z,22.96
2023-03-07T03:00:29.295Z,22.95
2023-03-07T03:01:29.308Z,22.94
2023-03-07T03:02:29.196Z,22.95
2023-03-07T03:03:29.181Z,22.94
2023-03-07T03:04:29.121Z,22.95
2023-03-07T03:05:29.041Z,22.95
2023-03-07T03:06:29.012Z,22.94
2023-03-07T03:07:28.938Z,22.94
2023-03-07T03:08:28.880Z,22.94
2023-03-07T03:09:28.833Z,22.94
2023-03-07T03:10:28.768Z,22.94
2023-03-07T03:11:28.718Z,22.94
2023-03-07T03:12:28.681Z,22.94
2023-03-07T03:13:28.615Z,22.94
2023-03-07T03:14:29.345Z,22.94
2023-03-07T03:15:28.520Z,22.94
2023-03-07T03:16:28.648Z,22.94
2023-03-07T03:17:28.425Z,22.94
2023-03-07T03:18:28.391Z,22.93
2023-03-07T03:19:28.348Z,22.93
2023-03-07T03:20:28.270Z,22.94
2023-03-07T03:21:28.262Z,22.94
2023-03-07T03:22:28.162Z,22.94
2023-03-07T03:23:28.109Z,22.93
2023-03-07T03:24:28.059Z,22.93
2023-03-07T03:25:28.014Z,22.93
2023-03-07T03:26:27.956Z,22.93
2023-03-07T03:27:27.907Z,22.93
2023-03-07T03:28:27.852Z,22.93
2023-03-07T03:29:27.805Z,22.93
2023-03-07T03:30:27.757Z,22.93
2023-03-07T03:31:27.836Z,22.93
2023-03-07T03:32:27.715Z,22.93
2023-03-07T03:33:27.591Z,22.93
2023-03-07T03:34:27.542Z,22.92
2023-03-07T03:35:27.510Z,22.92
2023-03-07T03:36:27.475Z,22.93
2023-03-07T03:37:27.380Z,22.92
2023-03-07T03:38:27.372Z,22.92
2023-03-07T03:39:27.265Z,22.92
2023-03-07T03:40:27.243Z,22.92
2023-03-07T03:41:27.168Z,22.92
2023-03-07T03:42:27.121Z,22.92
2023-03-07T03:43:27.057Z,22.92
2023-03-07T03:44:27.042Z,22.92
2023-03-07T03:45:26.954Z,22.92
2023-03-07T03:46:27.043Z,22.92
2023-03-07T03:47:26.937Z,22.91
2023-03-07T03:48:26.803Z,22.92
2023-03-07T03:49:26.780Z,22.92
2023-03-07T03:50:26.701Z,22.91
2023-03-07T03:51:26.689Z,22.92
2023-03-07T03:52:26.638Z,22.93
2023-03-07T03:53:26.550Z,22.92
2023-03-07T03:54:26.512Z,22.92
2023-03-07T03:55:26.439Z,22.92
2023-03-07T03:56:26.414Z,22.92
2023-03-07T03:57:26.372Z,22.92
2023-03-07T03:58:26.285Z,22.92
2023-03-07T03:59:26.231Z,22.92
2023-03-07T04:00:26.176Z,22.92
2023-03-07T04:01:26.150Z,22.92
2023-03-07T04:02:26.211Z,22.92
2023-03-07T04:03:26.027Z,22.92
2023-03-07T04:04:25.972Z,22.91
2023-03-07T04:05:25.922Z,22.91
2023-03-07T04:06:25.933Z,22.91
2023-03-07T04:07:25.842Z,22.91
2023-03-07T04:08:25.763Z,22.91
2023-03-07T04:09:25.714Z,22.91
2023-03-07T04:10:25.697Z,22.91
2023-03-07T04:11:25.652Z,22.91
2023-03-07T04:12:25.569Z,22.91
2023-03-07T04:13:25.546Z,22.91
2023-03-07T04:14:25.476Z,22.90
2023-03-07T04:15:25.444Z,22.91
2023-03-07T04:16:25.498Z,22.91
2023-03-07T04:17:25.346Z,22.91
2023-03-07T04:18:25.281Z,22.91
2023-03-07T04:19:25.228Z,22.91
2023-03-07T04:20:25.181Z,22.91
2023-03-07T04:21:25.215Z,22.91
2023-03-07T04:22:25.161Z,22.91
2023-03-07T04:23:25.054Z,22.91
2023-03-07T04:24:24.998Z,22.91
2023-03-07T04:25:24.928Z,22.91
2023-03-07T04:26:24.882Z,22.91
2023-03-07T04:27:24.850Z,22.90
2023-03-07T04:28:24.783Z,22.91
2023-03-07T04:29:24.732Z,22.91
2023-03-07T04:30:24.687Z,22.91
2023-03-07T04:31:24.743Z,22.90
2023-03-07T04:32:24.685Z,22.91
2023-03-07T04:33:24.543Z,22.91
2023-03-07T04:34:24.496Z,22.91
2023-03-07T04:35:24.442Z,22.91
2023-03-07T04:36:24.411Z,22.90
2023-03-07T04:37:24.370Z,22.90
2023-03-07T04:38:24.293Z,22.90
2023-03-07T04:39:24.353Z,22.90
2023-03-07T04:40:24.190Z,22.90
2023-03-07T04:41:24.148Z,22.90
2023-03-07T04:42:24.094Z,22.90
2023-03-07T04:43:24.039Z,22.90
2023-03-07T04:44:23.995Z,22.90
2023-03-07T04:45:23.947Z,22.89
2023-03-07T04:46:23.905Z,22.90
2023-03-07T04:47:23.837Z,22.90
2023-03-07T04:48:23.826Z,22.90
2023-03-07T04:49:23.743Z,22.90
2023-03-07T04:50:23.696Z,22.91
2023-03-07T04:51:23.644Z,22.90
2023-03-07T04:52:23.617Z,22.90
2023-03-07T04:53:23.594Z,22.91
2023-03-07T04:54:23.498Z,22.90
2023-03-07T04:55:23.475Z,22.90
2023-03-07T04:56:23.399Z,22.91
2023-03-07T04:57:23.353Z,22.91
2023-03-07T04:58:23.340Z,22.90
2023-03-07T04:59:23.289Z,22.90
2023-03-07T05:00:23.222Z,22.90
2023-03-07T05:01:23.204Z,22.90
2023-03-07T05:02:23.115Z,22.90
2023-03-07T05:03:23.062Z,22.90
2023-03-07T05:04:23.097Z,22.89
2023-03-07T05:05:22.964Z,22.90
2023-03-07T05:06:22.914Z,22.90
2023-03-07T05:07:22.867Z,22.89
2023-03-07T05:08:22.839Z,22.90
2023-03-07T05:09:22.767Z,22.90
2023-03-07T05:10:22.719Z,22.89
2023-03-07T05:11:22.683Z,22.89
2023-03-07T05:12:22.613Z,22.89
2023-03-07T05:13:22.557Z,22.89
2023-03-07T05:14:22.548Z,22.90
2023-03-07T05:15:22.491Z,22.90
2023-03-07T05:16:22.413Z,22.90
2023-03-07T05:17:22.362Z,22.90
2023-03-07T05:18:22.318Z,22.90
2023-03-07T05:19:22.264Z,22.90
2023-03-07T05:20:22.232Z,22.90
2023-03-07T05:21:22.200Z,22.89
2023-03-07T05:22:22.111Z,22.89
2023-03-07T05:23:22.059Z,22.89
2023-03-07T05:24:22.011Z,22.90
2023-03-07T05:25:21.957Z,22.89
2023-03-07T05:26:21.943Z,22.89
2023-03-07T05:27:21.882Z,22.89
2023-03-07T05:28:21.826Z,22.89
2023-03-07T05:29:21.781Z,22.89
2023-03-07T05:30:21.725Z,22.88
2023-03-07T05:31:21.844Z,22.89
2023-03-07T05:32:21.645Z,22.89
2023-03-07T05:33:21.570Z,22.89
2023-03-07T05:34:21.551Z,22.89
2023-03-07T05:35:21.471Z,22.89
2023-03-07T05:36:21.429Z,22.89
2023-03-07T05:37:21.384Z,22.88
2023-03-07T05:38:21.326Z,22.89
2023-03-07T05:39:21.302Z,22.89
2023-03-07T05:40:20.229Z,22.89
2023-03-07T05:41:21.186Z,22.89
2023-03-07T05:42:21.133Z,22.89
2023-03-07T05:43:21.109Z,22.89
2023-03-07T05:44:21.048Z,22.89
2023-03-07T05:45:21.016Z,22.88
2023-03-07T05:46:21.005Z,22.89
2023-03-07T05:47:20.882Z,22.88
2023-03-07T05:48:20.838Z,22.88
2023-03-07T05:49:20.793Z,22.89
2023-03-07T05:50:20.833Z,22.89
2023-03-07T05:51:20.701Z,22.88
2023-03-07T05:52:20.665Z,22.89
2023-03-07T05:53:20.608Z,22.89
2023-03-07T05:54:20.569Z,22.88
2023-03-07T05:55:20.559Z,22.88
2023-03-07T05:56:20.473Z,22.87
2023-03-07T05:57:20.428Z,22.88
2023-03-07T05:58:20.379Z,22.89
2023-03-07T05:59:20.359Z,22.88
2023-03-07T06:00:20.326Z,22.87
2023-03-07T06:01:20.243Z,22.88
2023-03-07T06:02:20.237Z,22.88
2023-03-07T06:03:20.144Z,22.88
2023-03-07T06:04:20.346Z,22.88
2023-03-07T06:05:20.055Z,22.88
2023-03-07T06:06:20.002Z,22.88
2023-03-07T06:07:19.962Z,22.89
2023-03-07T06:08:19.897Z,22.89
2023-03-07T06:09:19.936Z,22.89
2023-03-07T06:10:19.825Z,22.88
2023-03-07T06:11:19.758Z,22.88
2023-03-07T06:12:19.715Z,22.88
2023-03-07T06:13:19.667Z,22.89
2023-03-07T06:14:19.816Z,22.88
2023-03-07T06:15:19.608Z,22.89
2023-03-07T06:16:19.625Z,22.87
2023-03-07T06:17:19.494Z,22.88
2023-03-07T06:18:19.446Z,22.88
2023-03-07T06:19:19.839Z,22.88
2023-03-07T06:20:19.358Z,22.88
2023-03-07T06:21:19.307Z,22.89
2023-03-07T06:22:19.279Z,22.90
2023-03-07T06:23:19.259Z,22.90
2023-03-07T06:24:19.350Z,22.91
2023-03-07T06:25:19.199Z,22.92
2023-03-07T06:26:19.085Z,22.92
2023-03-07T06:27:19.047Z,22.93
2023-03-07T06:28:19.012Z,22.93
2023-03-07T06:29:18.954Z,22.94
2023-03-07T06:30:18.876Z,22.94
2023-03-07T06:31:18.904Z,22.95
2023-03-07T06:32:18.937Z,22.96
2023-03-07T06:33:18.742Z,22.95
2023-03-07T06:34:18.849Z,22.96
2023-03-07T06:35:18.625Z,22.97
2023-03-07T06:36:18.608Z,22.97
2023-03-07T06:37:18.529Z,22.98
2023-03-07T06:38:18.498Z,22.98
2023-03-07T06:39:18.418Z,22.98
2023-03-07T06:40:18.860Z,22.99
2023-03-07T06:41:18.348Z,22.99
2023-03-07T06:42:18.363Z,23.00
2023-03-07T06:43:18.332Z,22.99
2023-03-07T06:44:21.355Z,23.00
2023-03-07T06:45:18.125Z,23.01
2023-03-07T06:46:18.066Z,23.01
2023-03-07T06:47:18.043Z,23.01
2023-03-07T06:48:18.410Z,23.02
2023-03-07T06:49:17.910Z,23.02
2023-03-07T06:50:23.752Z,23.03
2023-03-07T06:51:17.769Z,23.04
2023-03-07T06:52:17.739Z,23.04
2023-03-07T06:53:17.693Z,23.04
2023-03-07T06:54:17.622Z,23.05
2023-03-07T06:55:17.572Z,23.07
2023-03-07T06:56:17.860Z,23.08
2023-03-07T06:57:17.470Z,23.10
2023-03-07T06:58:17.379Z,23.13
2023-03-07T06:59:17.356Z,23.14
2023-03-07T07:00:17.414Z,23.15
2023-03-07T07:01:17.249Z,23.16
2023-03-07T07:02:17.389Z,23.17
2023-03-07T07:03:17.283Z,23.18
2023-03-07T07:04:17.040Z,23.17
2023-03-07T07:05:17.371Z,23.17
2023-03-07T07:06:17.400Z,23.16
2023-03-07T07:07:16.867Z,23.15
2023-03-07T07:08:16.804Z,23.13
2023-03-07T07:09:16.750Z,23.11
2023-03-07T07:10:16.712Z,23.11
2023-03-07T07:11:16.641Z,23.09
2023-03-07T07:12:16.584Z,23.08
2023-03-07T07:13:16.522Z,23.06
2023-03-07T07:14:16.444Z,23.06
2023-03-07T07:15:16.836Z,23.05
2023-03-07T07:16:16.714Z,23.04
2023-03-07T07:17:16.259Z,23.02
2023-03-07T07:18:16.224Z,23.02
2023-03-07T07:19:16.399Z,23.00
2023-03-07T07:20:16.572Z,23.00
2023-03-07T07:21:16.062Z,23.00
2023-03-07T07:22:15.990Z,22.99
2023-03-07T07:23:15.941Z,22.98
2023-03-07T07:24:16.115Z,22.98
2023-03-07T07:25:15.865Z,22.97
2023-03-07T07:26:23.163Z,22.97
2023-03-07T07:27:15.709Z,22.94
2023-03-07T07:28:15.655Z,22.95
2023-03-07T07:29:15.625Z,22.94
2023-03-07T07:30:15.596Z,22.93
2023-03-07T07:31:15.948Z,22.94
2023-03-07T07:32:15.601Z,22.93
2023-03-07T07:33:15.550Z,22.92
2023-03-07T07:34:15.349Z,22.92
2023-03-07T07:35:15.327Z,22.92
2023-03-07T07:36:15.440Z,22.92
2023-03-07T07:37:15.215Z,22.92
2023-03-07T07:38:15.160Z,22.91
2023-03-07T07:39:15.123Z,22.91
2023-03-07T07:40:15.468Z,22.90
2023-03-07T07:41:15.076Z,22.90
2023-03-07T07:42:14.957Z,22.90
2023-03-07T07:43:15.907Z,22.90
2023-03-07T07:44:14.881Z,22.89
2023-03-07T07:45:14.856Z,22.84
2023-03-07T07:46:14.945Z,22.70
2023-03-07T07:47:14.955Z,22.52
2023-03-07T07:48:15.101Z,22.24
2023-03-07T07:49:14.678Z,22.12
2023-03-07T07:50:14.933Z,22.11
2023-03-07T07:51:14.989Z,22.13
2023-03-07T07:52:14.574Z,22.19
2023-03-07T07:53:14.525Z,22.24
2023-03-07T07:54:14.497Z,22.32
2023-03-07T07:55:14.913Z,22.38
2023-03-07T07:56:14.380Z,22.44
2023-03-07T07:57:14.331Z,22.51
2023-03-07T07:58:14.292Z,22.58
2023-03-07T07:59:14.241Z,22.65
2023-03-07T08:00:14.373Z,22.70
2023-03-07T08:01:14.129Z,22.76
2023-03-07T08:02:14.169Z,22.81
2023-03-07T08:03:14.106Z,22.84
2023-03-07T08:04:14.101Z,22.88
2023-03-07T08:05:13.934Z,22.92
2023-03-07T08:06:13.893Z,22.96
2023-03-07T08:07:13.882Z,22.98
2023-03-07T08:08:14.789Z,23.02
2023-03-07T08:09:13.739Z,23.05
2023-03-07T08:10:13.682Z,23.08
2023-03-07T08:11:13.635Z,23.12
2023-03-07T08:12:13.879Z,23.15
2023-03-07T08:13:13.689Z,23.17
2023-03-07T08:14:13.512Z,23.20
2023-03-07T08:15:13.875Z,23.22
2023-03-07T08:16:13.423Z,23.24
2023-03-07T08:17:13.350Z,23.26
2023-03-07T08:18:13.274Z,23.27
2023-03-07T08:19:13.223Z,23.30
2023-03-07T08:20:13.387Z,23.31
2023-03-07T08:21:13.116Z,23.32
2023-03-07T08:22:13.065Z,23.35
2023-03-07T08:23:13.088Z,23.38
2023-03-07T08:24:13.012Z,23.39
2023-03-07T08:25:13.460Z,23.42
2023-03-07T08:26:12.885Z,23.44
2023-03-07T08:27:12.816Z,23.46
2023-03-07T08:28:13.733Z,23.48
2023-03-07T08:29:13.009Z,23.50
2023-03-07T08:30:12.692Z,23.50
2023-03-07T08:31:12.662Z,23.51
2023-03-07T08:32:12.585Z,23.53
2023-03-07T08:33:12.503Z,23.56
2023-03-07T08:34:13.026Z,23.57
2023-03-07T08:35:12.391Z,23.58
2023-03-07T08:36:12.354Z,23.58
2023-03-07T08:37:13.579Z,23.52
2023-03-07T08:38:12.238Z,23.17
2023-03-07T08:39:12.332Z,22.62
2023-03-07T08:40:12.193Z,22.08
2023-03-07T08:41:12.137Z,21.66
2023-03-07T08:42:12.673Z,21.29
2023-03-07T08:43:12.204Z,20.96
2023-03-07T08:44:12.066Z,20.74
2023-03-07T08:45:12.458Z,20.47
2023-03-07T08:46:12.046Z,20.23
2023-03-07T08:47:12.394Z,20.30
2023-03-07T08:48:12.972Z,20.48
2023-03-07T08:49:12.017Z,20.68
2023-03-07T08:50:11.944Z,20.89
2023-03-07T08:51:11.920Z,21.09
2023-03-07T08:52:12.416Z,21.27
2023-03-07T08:53:11.867Z,21.44
2023-03-07T08:54:19.824Z,21.60
2023-03-07T08:55:15.028Z,21.74
2023-03-07T08:56:11.845Z,21.88
2023-03-07T08:57:11.791Z,22.01
2023-03-07T08:58:11.905Z,22.14
2023-03-07T08:59:11.711Z,22.26
2023-03-07T09:00:12.177Z,22.37
2023-03-07T09:01:11.969Z,22.47
2023-03-07T09:02:12.555Z,22.56
2023-03-07T09:03:11.942Z,22.64
2023-03-07T09:04:11.745Z,22.72
2023-03-07T09:05:11.534Z,22.78
2023-03-07T09:06:12.012Z,22.85
2023-03-07T09:07:11.638Z,22.90
2023-03-07T09:08:11.504Z,22.90
2023-03-07T09:09:11.400Z,22.84
2023-03-07T09:10:11.236Z,22.73
2023-03-07T09:11:11.526Z,22.62
2023-03-07T09:12:11.396Z,22.51
2023-03-07T09:13:11.729Z,22.37
2023-03-07T09:14:11.502Z,22.27
2023-03-07T09:15:11.378Z,22.27
2023-03-07T09:16:11.881Z,22.33
2023-03-07T09:17:11.164Z,22.39
2023-03-07T09:18:11.360Z,22.45
2023-03-07T09:19:11.412Z,22.52
2023-03-07T09:20:11.291Z,22.58
2023-03-07T09:21:11.295Z,22.65
2023-03-07T09:22:10.967Z,22.67
2023-03-07T09:23:13.758Z,22.65
2023-03-07T09:24:11.323Z,22.62
2023-03-07T09:25:10.456Z,22.58
2023-03-07T09:26:10.440Z,22.55
2023-03-07T09:27:10.377Z,22.51
2023-03-07T09:28:10.355Z,22.49
2023-03-07T09:29:10.359Z,22.48
2023-03-07T09:30:10.222Z,22.47
2023-03-07T09:31:10.246Z,22.51
2023-03-07T09:32:10.184Z,22.55
2023-03-07T09:33:10.106Z,22.60
2023-03-07T09:34:10.062Z,22.66
2023-03-07T09:35:09.983Z,22.71
2023-03-07T09:36:09.944Z,22.75
2023-03-07T09:37:09.895Z,22.80
2023-03-07T09:38:09.881Z,22.85
2023-03-07T09:39:09.903Z,22.90
2023-03-07T09:40:09.895Z,22.94
2023-03-07T09:41:09.693Z,22.98
2023-03-07T09:42:09.775Z,23.02
2023-03-07T09:43:09.606Z,23.06
2023-03-07T09:44:09.549Z,23.10
2023-03-07T09:45:09.951Z,23.13
2023-03-07T09:46:09.486Z,23.16
2023-03-07T09:47:09.413Z,23.18
2023-03-07T09:48:09.436Z,23.21
2023-03-07T09:49:09.308Z,23.24
2023-03-07T09:50:09.534Z,23.26
2023-03-07T09:51:11.882Z,23.28
2023-03-07T09:52:10.321Z,23.31
2023-03-07T09:53:09.428Z,23.33
2023-03-07T09:54:09.078Z,23.35
2023-03-07T09:55:10.169Z,23.38
2023-03-07T09:56:08.934Z,23.41
2023-03-07T09:57:08.910Z,23.41
2023-03-07T09:58:09.491Z,23.45
2023-03-07T09:59:21.996Z,23.46
2023-03-07T10:00:09.803Z,23.47
2023-03-07T10:01:08.979Z,23.49
2023-03-07T10:02:08.609Z,23.51
2023-03-07T10:03:08.908Z,23.53
2023-03-07T10:04:09.006Z,23.55
2023-03-07T10:05:08.956Z,23.57
2023-03-07T10:06:09.400Z,23.57
2023-03-07T10:07:08.336Z,23.59
2023-03-07T10:08:08.284Z,23.59
2023-03-07T10:09:08.556Z,23.61
2023-03-07T10:10:08.174Z,23.62
2023-03-07T10:11:08.129Z,23.64
2023-03-07T10:12:08.067Z,23.65
2023-03-07T10:13:09.304Z,23.67
2023-03-07T10:14:07.985Z,23.68
2023-03-07T10:15:08.011Z,23.69
2023-03-07T10:16:07.811Z,23.70
2023-03-07T10:17:07.754Z,23.70
2023-03-07T10:18:07.709Z,23.72
2023-03-07T10:19:07.721Z,23.72
2023-03-07T10:20:07.585Z,23.72
2023-03-07T10:21:08.010Z,23.73
2023-03-07T10:22:07.451Z,23.74
2023-03-07T10:23:07.509Z,23.76
2023-03-07T10:24:07.330Z,23.77
2023-03-07T10:25:07.255Z,23.78
2023-03-07T10:26:07.499Z,23.79
2023-03-07T10:27:07.115Z,23.81
2023-03-07T10:28:07.061Z,23.82
2023-03-07T10:29:06.995Z,23.83
2023-03-07T10:30:06.962Z,23.84
2023-03-07T10:31:06.860Z,23.85
2023-03-07T10:32:07.332Z,23.86
2023-03-07T10:33:06.746Z,23.87
2023-03-07T10:34:06.641Z,23.88
2023-03-07T10:35:06.577Z,23.90
2023-03-07T10:36:06.596Z,23.91
2023-03-07T10:37:09.400Z,23.92
2023-03-07T10:38:06.375Z,23.93
2023-03-07T10:39:13.724Z,23.94
2023-03-07T10:40:06.259Z,23.94
2023-03-07T10:41:06.610Z,23.94
2023-03-07T10:42:06.443Z,23.95
2023-03-07T10:43:06.086Z,23.96
2023-03-07T10:44:07.020Z,23.97
2023-03-07T10:45:05.935Z,23.97
2023-03-07T10:46:18.921Z,23.99
2023-03-07T10:47:05.990Z,23.99
2023-03-07T10:48:05.794Z,24.00
2023-03-07T10:49:07.575Z,24.01
2023-03-07T10:50:05.617Z,24.01
2023-03-07T10:51:13.531Z,24.02
2023-03-07T10:52:06.028Z,24.03
2023-03-07T10:53:05.489Z,24.05
2023-03-07T10:54:05.403Z,24.06
2023-03-07T10:55:05.346Z,24.08
2023-03-07T10:56:05.283Z,24.11
2023-03-07T10:57:05.546Z,24.12
2023-03-07T10:58:05.442Z,24.13
2023-03-07T10:59:05.234Z,24.15
2023-03-07T11:00:05.017Z,24.16
2023-03-07T11:01:04.979Z,24.18
2023-03-07T11:02:04.915Z,24.20
2023-03-07T11:03:04.841Z,24.21
2023-03-07T11:04:05.141Z,24.23
2023-03-07T11:05:04.737Z,24.25
2023-03-07T11:06:04.678Z,24.27
2023-03-07T11:07:04.581Z,24.28
2023-03-07T11:08:05.025Z,24.30
2023-03-07T11:09:04.511Z,24.31
2023-03-07T11:10:04.380Z,24.33
2023-03-07T11:11:04.315Z,24.35
2023-03-07T11:12:04.263Z,24.36
2023-03-07T11:13:04.196Z,24.38
2023-03-07T11:14:04.475Z,24.39
2023-03-07T11:15:05.061Z,24.41
2023-03-07T11:16:11.558Z,24.42
2023-03-07T11:17:03.939Z,24.43
2023-03-07T11:18:05.610Z,24.44
2023-03-07T11:19:03.965Z,24.45
2023-03-07T11:20:03.751Z,24.45
2023-03-07T11:21:03.994Z,24.47
2023-03-07T11:22:03.717Z,24.47
2023-03-07T11:23:03.573Z,24.49
2023-03-07T11:24:04.046Z,24.49
2023-03-07T11:25:03.434Z,24.50
2023-03-07T11:26:03.344Z,24.51
2023-03-07T11:27:03.272Z,24.52
2023-03-07T11:28:03.964Z,24.51
2023-03-07T11:29:03.133Z,24.52
2023-03-07T11:30:03.444Z,24.53
2023-03-07T11:31:03.063Z,24.52
2023-03-07T11:32:05.385Z,24.53
2023-03-07T11:33:02.894Z,24.52
2023-03-07T11:34:03.012Z,24.51
2023-03-07T11:35:02.738Z,24.52
2023-03-07T11:36:03.056Z,24.52
2023-03-07T11:37:02.605Z,24.52
2023-03-07T11:38:02.534Z,24.52
2023-03-07T11:39:03.447Z,24.52
2023-03-07T11:40:02.477Z,24.52
2023-03-07T11:41:02.355Z,24.51
2023-03-07T11:42:02.287Z,24.52
2023-03-07T11:43:02.237Z,24.51
2023-03-07T11:44:04.580Z,24.52
2023-03-07T11:45:02.099Z,24.51
2023-03-07T11:46:02.102Z,24.52
2023-03-07T11:47:01.987Z,24.52
2023-03-07T11:48:01.900Z,24.52
2023-03-07T11:49:01.842Z,24.52
2023-03-07T11:50:01.996Z,24.52
2023-03-07T11:51:01.719Z,24.52
2023-03-07T11:52:01.668Z,24.52
2023-03-07T11:53:01.588Z,24.53
2023-03-07T11:54:01.954Z,24.52
2023-03-07T11:55:01.481Z,24.52
2023-03-07T11:56:01.412Z,24.53
2023-03-07T11:57:01.476Z,24.53
2023-03-07T11:58:01.295Z,24.53
2023-03-07T11:59:01.235Z,24.53
2023-03-07T12:00:01.173Z,24.53
2023-03-07T12:01:01.483Z,24.53
2023-03-07T12:02:01.046Z,24.53
2023-03-07T12:03:01.550Z,24.53
2023-03-07T12:04:00.914Z,24.53
2023-03-07T12:05:00.845Z,24.53
2023-03-07T12:06:00.844Z,24.53
2023-03-07T12:07:00.960Z,24.54
2023-03-07T12:08:00.654Z,24.54
2023-03-07T12:09:00.703Z,24.54
2023-03-07T12:10:00.528Z,24.55
2023-03-07T12:11:00.482Z,24.54
2023-03-07T12:12:00.483Z,24.54
2023-03-07T12:13:00.373Z,24.55
2023-03-07T12:14:00.315Z,24.54
2023-03-07T12:15:00.225Z,24.56
2023-03-07T12:16:00.524Z,24.55
2023-03-07T12:17:00.142Z,24.55
2023-03-07T12:18:00.115Z,24.56
2023-03-07T12:18:59.995Z,24.55
2023-03-07T12:19:59.935Z,24.55
2023-03-07T12:21:00.133Z,24.55
2023-03-07T12:21:59.787Z,24.56
2023-03-07T12:23:00.026Z,24.55
2023-03-07T12:23:59.637Z,24.55
2023-03-07T12:24:59.570Z,24.55
2023-03-07T12:25:59.504Z,24.56
2023-03-07T12:26:59.430Z,24.56
2023-03-07T12:27:59.507Z,24.56
2023-03-07T12:28:59.310Z,24.56
2023-03-07T12:29:59.239Z,24.56
2023-03-07T12:30:59.164Z,24.56
2023-03-07T12:31:59.320Z,24.56
2023-03-07T12:32:59.161Z,24.56
2023-03-07T12:33:58.984Z,24.56
2023-03-07T12:34:59.561Z,24.55
2023-03-07T12:35:59.057Z,24.56
2023-03-07T12:36:58.898Z,24.55
2023-03-07T12:37:59.844Z,24.56
2023-03-07T12:38:58.993Z,24.56
2023-03-07T12:39:59.009Z,24.57
2023-03-07T12:40:58.635Z,24.56
2023-03-07T12:41:58.570Z,24.56
2023-03-07T12:42:58.496Z,24.57
2023-03-07T12:43:58.436Z,24.57
2023-03-07T12:44:58.504Z,24.58
2023-03-07T12:45:58.408Z,24.57
2023-03-07T12:46:58.245Z,24.57
2023-03-07T12:47:58.183Z,24.57
2023-03-07T12:48:58.140Z,24.58
2023-03-07T12:49:58.502Z,24.57
2023-03-07T12:50:58.014Z,24.57
2023-03-07T12:51:57.920Z,24.58
2023-03-07T12:52:57.854Z,24.57
2023-03-07T12:53:57.834Z,24.57
2023-03-07T12:54:58.090Z,24.58
2023-03-07T12:55:57.665Z,24.57
2023-03-07T12:56:57.985Z,24.58
2023-03-07T12:57:57.548Z,24.58
2023-03-07T12:58:57.495Z,24.59
2023-03-07T12:59:57.411Z,24.58
2023-03-07T13:00:57.520Z,24.58
2023-03-07T13:01:57.288Z,24.49
2023-03-07T13:02:57.223Z,24.32
2023-03-07T13:03:57.214Z,24.08
2023-03-07T13:04:57.105Z,23.93
2023-03-07T13:05:57.501Z,23.85
2023-03-07T13:06:57.514Z,23.73
2023-03-07T13:07:56.946Z,23.58
2023-03-07T13:08:56.912Z,23.56
2023-03-07T13:09:56.996Z,23.58
2023-03-07T13:10:56.989Z,23.57
2023-03-07T13:11:56.739Z,23.53
2023-03-07T13:12:56.687Z,23.43
2023-03-07T13:13:56.639Z,23.35
2023-03-07T13:14:56.620Z,23.37
2023-03-07T13:15:56.990Z,23.41
2023-03-07T13:16:56.584Z,23.42
2023-03-07T13:17:56.462Z,23.41
2023-03-07T13:18:56.402Z,23.41
2023-03-07T13:19:56.433Z,23.40
2023-03-07T13:20:56.508Z,23.43
2023-03-07T13:21:56.261Z,23.48
2023-03-07T13:22:56.218Z,23.54
2023-03-07T13:23:56.157Z,23.61
2023-03-07T13:24:56.107Z,23.66
2023-03-07T13:25:56.535Z,23.70
2023-03-07T13:26:57.005Z,23.75
2023-03-07T13:27:55.969Z,23.78
2023-03-07T13:28:55.902Z,23.82
2023-03-07T13:29:55.845Z,23.86
2023-03-07T13:30:55.827Z,23.90
2023-03-07T13:31:56.270Z,23.92
2023-03-07T13:32:55.688Z,23.96
2023-03-07T13:33:55.613Z,23.98
2023-03-07T13:34:55.575Z,24.00
2023-03-07T13:35:56.081Z,24.02
2023-03-07T13:36:55.520Z,24.04
2023-03-07T13:37:55.385Z,24.07
2023-03-07T13:38:55.325Z,24.09
2023-03-07T13:39:55.280Z,24.11
2023-03-07T13:40:55.212Z,24.12
2023-03-07T13:42:05.083Z,24.13
2023-03-07T13:42:55.122Z,24.13
2023-03-07T13:43:55.074Z,24.15
2023-03-07T13:44:55.028Z,24.17
2023-03-07T13:45:55.069Z,24.18
2023-03-07T13:46:54.896Z,24.19
2023-03-07T13:47:55.021Z,24.20
2023-03-07T13:48:54.825Z,24.21
2023-03-07T13:49:54.758Z,24.21
2023-03-07T13:50:54.711Z,24.22
2023-03-07T13:51:55.091Z,24.22
2023-03-07T13:52:55.049Z,24.22
2023-03-07T13:53:54.496Z,24.23
2023-03-07T13:54:54.443Z,24.25
2023-03-07T13:55:54.537Z,24.25
2023-03-07T13:56:54.287Z,24.26
2023-03-07T13:57:55.249Z,24.26
2023-03-07T13:58:54.203Z,24.26
2023-03-07T13:59:54.104Z,24.27
2023-03-07T14:00:54.645Z,24.27
2023-03-07T14:01:53.990Z,24.29
2023-03-07T14:02:53.907Z,24.28
2023-03-07T14:03:53.947Z,24.29
2023-03-07T14:04:54.030Z,24.30
2023-03-07T14:05:53.727Z,24.30
2023-03-07T14:06:53.634Z,24.30
2023-03-07T14:07:53.566Z,24.30
2023-03-07T14:08:53.544Z,24.30
2023-03-07T14:09:53.509Z,24.31
2023-03-07T14:10:53.374Z,24.31
2023-03-07T14:11:53.348Z,24.32
2023-03-07T14:12:53.236Z,24.32
2023-03-07T14:13:53.577Z,24.32
2023-03-07T14:14:53.208Z,24.32
2023-03-07T14:15:53.125Z,24.33
2023-03-07T14:16:52.971Z,24.32
2023-03-07T14:17:53.039Z,24.33
2023-03-07T14:18:53.364Z,24.33
2023-03-07T14:19:52.850Z,24.33
2023-03-07T14:20:52.707Z,24.33
2023-03-07T14:21:52.656Z,24.32
2023-03-07T14:22:53.044Z,24.34
2023-03-07T14:23:52.520Z,24.33
2023-03-07T14:24:52.539Z,24.33
2023-03-07T14:25:52.622Z,24.34
2023-03-07T14:26:52.335Z,24.34
2023-03-07T14:27:52.290Z,24.35
2023-03-07T14:28:52.210Z,24.34
2023-03-07T14:29:52.566Z,24.34
2023-03-07T14:30:52.076Z,24.34
2023-03-07T14:31:52.022Z,24.34
2023-03-07T14:32:51.965Z,24.35
2023-03-07T14:33:52.093Z,24.35
2023-03-07T14:34:52.041Z,24.35
2023-03-07T14:35:51.886Z,24.36
2023-03-07T14:36:52.052Z,24.36
2023-03-07T14:37:51.773Z,24.35
2023-03-07T14:38:51.576Z,24.36
2023-03-07T14:39:51.552Z,24.35
2023-03-07T14:40:51.536Z,24.35
2023-03-07T14:41:51.398Z,24.36
2023-03-07T14:42:51.353Z,24.35
2023-03-07T14:43:51.287Z,24.36
2023-03-07T14:44:51.547Z,24.36
2023-03-07T14:45:51.240Z,24.35
2023-03-07T14:46:51.199Z,24.36
2023-03-07T14:47:51.047Z,24.35
2023-03-07T14:48:52.865Z,24.35
2023-03-07T14:49:51.044Z,24.34
2023-03-07T14:50:50.903Z,24.35